createdAt,value
2022-12-16T06:32:58.290Z,42.75
2022-12-16T06:35:45.389Z,38.35
2022-12-16T06:38:32.738Z,44.30
2022-12-16T06:41:19.818Z,44.25
2022-12-16T06:44:07.311Z,54.05
2022-12-16T06:46:54.406Z,50.42
2022-12-16T06:49:42.359Z,51.40
2022-12-16T06:52:29.521Z,44.83
2022-12-16T06:55:17.059Z,54.70
2022-12-16T06:58:10.020Z,50.80
2022-12-16T07:01:00.452Z,45.38
2022-12-16T07:03:48.292Z,42.42
2022-12-16T07:06:56.366Z,45.38
2022-12-16T07:09:47.400Z,41.25
2022-12-16T07:12:38.310Z,42.97
2022-12-16T07:15:26.973Z,38.17
2022-12-16T07:18:15.776Z,42.28
2022-12-16T07:21:03.346Z,41.92
2022-12-16T07:23:51.370Z,48.13
2022-12-16T07:26:42.447Z,49.13
2022-12-16T07:29:33.570Z,45.70
2022-12-16T07:32:20.944Z,52.53
2022-12-16T07:35:09.048Z,42.42
2022-12-16T07:37:59.401Z,51.47
2022-12-16T07:40:48.042Z,48.78
2022-12-16T07:43:37.280Z,52.35
2022-12-16T07:46:26.145Z,48.97
2022-12-16T07:49:13.731Z,33.95
2022-12-16T07:52:01.873Z,59.33
2022-12-16T07:54:49.766Z,49.17
2022-12-16T07:57:37.647Z,46.15
2022-12-16T08:00:27.870Z,53.50
2022-12-16T08:03:16.249Z,41.83
2022-12-16T08:06:03.636Z,42.88
2022-12-16T08:08:51.534Z,43.90
2022-12-16T08:11:39.980Z,53.05
2022-12-16T08:14:28.396Z,52.95
2022-12-16T08:17:16.125Z,61.50
2022-12-16T08:20:10.746Z,49.00
2022-12-16T08:23:01.033Z,43.75
2022-12-16T08:25:49.760Z,45.35
2022-12-16T08:28:37.290Z,46.40
2022-12-16T08:31:25.094Z,38.92
2022-12-16T08:34:12.242Z,43.15
2022-12-16T08:36:59.475Z,51.92
2022-12-16T08:39:54.764Z,44.42
2022-12-16T08:42:54.519Z,39.90
2022-12-16T08:45:44.022Z,50.40
2022-12-16T08:48:32.165Z,41.40
2022-12-16T08:51:25.867Z,46.55
2022-12-16T08:54:13.080Z,39.05
2022-12-16T08:57:00.228Z,37.40
2022-12-16T08:59:47.755Z,44.22
2022-12-16T09:02:35.091Z,40.88
2022-12-16T09:05:23.452Z,37.70
2022-12-16T09:08:10.965Z,37.50
2022-12-16T09:10:58.794Z,46.58
2022-12-16T09:13:46.258Z,36.50
2022-12-16T09:16:33.797Z,31.90
2022-12-16T09:19:21.077Z,27.60
2022-12-16T09:22:08.712Z,31.35
2022-12-16T09:24:56.099Z,34.15
2022-12-16T09:27:43.344Z,38.10
2022-12-16T09:30:30.854Z,38.42
2022-12-16T09:33:18.282Z,34.25
2022-12-16T09:36:05.499Z,33.33
2022-12-16T09:38:53.041Z,33.78
2022-12-16T09:44:40.965Z,31.33
2022-12-16T09:50:42.878Z,30.63
2022-12-16T09:53:35.654Z,31.58
2022-12-16T09:56:26.733Z,35.83
2022-12-16T09:59:18.219Z,40.17
2022-12-16T10:02:06.137Z,31.73
2022-12-16T10:04:53.349Z,38.10
2022-12-16T10:07:44.350Z,35.97
2022-12-16T10:10:58.596Z,32.92
2022-12-16T10:14:00.620Z,30.63
2022-12-16T10:17:12.157Z,35.22
2022-12-16T10:20:13.853Z,35.25
2022-12-16T10:23:25.545Z,28.95
2022-12-16T10:26:26.733Z,27.55
2022-12-16T10:29:22.185Z,29.15
2022-12-16T10:32:09.346Z,28.52
2022-12-16T10:34:57.624Z,36.38
2022-12-16T10:37:54.662Z,37.58
2022-12-16T10:40:46.211Z,28.80
2022-12-16T10:43:54.196Z,32.42
2022-12-16T10:46:46.365Z,30.23
2022-12-16T10:49:36.160Z,34.65
2022-12-16T10:52:23.431Z,41.10
2022-12-16T10:55:37.919Z,35.78
2022-12-16T10:58:42.985Z,37.08
2022-12-16T11:01:48.328Z,27.90
2022-12-16T11:04:56.460Z,16.20
2022-12-16T11:07:50.604Z,27.50
2022-12-16T11:13:51.162Z,29.23
2022-12-16T11:16:43.418Z,28.27
2022-12-16T11:19:47.790Z,25.80
2022-12-16T11:22:39.106Z,30.25
2022-12-16T11:25:42.715Z,21.75
2022-12-16T11:28:33.825Z,24.52
2022-12-16T11:31:26.080Z,30.35
2022-12-16T11:34:14.810Z,26.23
2022-12-16T11:37:03.998Z,20.95
2022-12-16T11:39:54.345Z,31.95
2022-12-16T11:42:47.487Z,30.95
2022-12-16T11:45:38.728Z,25.00
2022-12-16T11:48:48.716Z,26.92
2022-12-16T11:51:36.793Z,23.90
2022-12-16T11:54:46.653Z,24.13
2022-12-16T11:57:59.231Z,27.30
2022-12-16T12:00:46.718Z,24.52
2022-12-16T12:03:42.738Z,24.00
2022-12-16T12:06:47.718Z,18.77
2022-12-16T12:09:40.272Z,28.50
2022-12-16T12:15:42.932Z,21.27
2022-12-16T12:19:10.863Z,13.80
2022-12-16T12:22:09.016Z,21.98
2022-12-16T12:25:21.534Z,18.23
2022-12-16T12:28:21.810Z,19.20
2022-12-16T12:31:22.218Z,19.88
2022-12-16T12:34:41.085Z,17.83
2022-12-16T12:37:43.624Z,16.17
2022-12-16T12:40:59.846Z,19.03
2022-12-16T12:44:15.839Z,16.33
2022-12-16T12:47:14.125Z,17.50
2022-12-16T12:50:17.231Z,22.73
2022-12-16T12:53:37.895Z,19.73
2022-12-16T12:56:39.456Z,18.15
2022-12-16T12:59:36.487Z,13.07
2022-12-16T13:02:29.786Z,17.55
2022-12-16T13:05:24.054Z,18.25
2022-12-16T13:08:11.916Z,15.70
2022-12-16T13:10:59.157Z,20.35
2022-12-16T13:16:30.154Z,26.13
2022-12-16T13:19:56.396Z,17.80
2022-12-16T13:22:56.109Z,23.92
2022-12-16T13:26:10.605Z,21.25
2022-12-16T13:29:00.549Z,15.35
2022-12-16T13:31:50.145Z,22.90
2022-12-16T13:37:25.802Z,16.42
2022-12-16T13:40:38.707Z,15.48
2022-12-16T13:43:37.334Z,12.85
2022-12-16T13:49:03.163Z,25.77
2022-12-16T13:54:35.598Z,15.68
2022-12-16T13:57:24.423Z,14.65
2022-12-16T14:00:12.913Z,18.98
2022-12-16T14:03:02.467Z,20.67
2022-12-16T14:05:55.231Z,20.15
2022-12-16T14:08:44.901Z,23.88
2022-12-16T14:11:43.079Z,17.70
2022-12-16T14:14:39.314Z,18.83
2022-12-16T14:17:33.717Z,29.40
2022-12-16T14:20:38.954Z,22.65
2022-12-16T14:26:18.509Z,24.17
2022-12-16T14:29:09.182Z,16.75
2022-12-16T14:31:59.166Z,22.13
2022-12-16T14:34:50.263Z,21.88
2022-12-16T14:37:43.657Z,18.52
2022-12-16T14:40:43.884Z,26.35
2022-12-16T14:43:34.740Z,25.90
2022-12-16T14:46:22.337Z,24.15
2022-12-16T14:49:11.000Z,24.08
2022-12-16T14:52:06.151Z,25.00
2022-12-16T14:55:03.301Z,25.75
2022-12-16T14:57:52.370Z,30.30
2022-12-16T15:00:42.379Z,25.33
2022-12-16T15:03:59.307Z,24.77
2022-12-16T15:06:56.692Z,26.08
2022-12-16T15:09:49.140Z,21.25
2022-12-16T15:12:40.875Z,30.98
2022-12-16T15:15:33.953Z,20.33
2022-12-16T15:18:22.801Z,23.98
2022-12-16T15:21:13.456Z,18.15
2022-12-16T15:24:03.551Z,28.52
2022-12-16T15:26:53.505Z,28.27
2022-12-16T15:29:53.171Z,24.42
2022-12-16T15:35:23.529Z,28.13
2022-12-16T15:38:10.898Z,21.38
2022-12-16T15:41:01.442Z,20.42
2022-12-16T15:43:57.357Z,30.25
2022-12-16T15:46:47.674Z,25.48
2022-12-16T15:49:43.553Z,26.48
2022-12-16T15:55:57.052Z,33.97
2022-12-16T15:58:49.964Z,36.10
2022-12-16T16:01:41.604Z,38.03
2022-12-16T16:04:42.202Z,29.13
2022-12-16T16:07:37.494Z,29.67
2022-12-16T16:10:42.642Z,27.98
2022-12-16T16:13:31.331Z,29.92
2022-12-16T16:16:19.701Z,29.95
2022-12-16T16:19:08.201Z,30.45
2022-12-16T16:21:55.583Z,24.00
2022-12-16T16:24:43.339Z,24.90
2022-12-16T16:27:33.877Z,39.67
2022-12-16T16:30:21.992Z,27.35
2022-12-16T16:33:09.252Z,27.83
2022-12-16T16:35:56.538Z,29.75
2022-12-16T16:38:43.601Z,28.90
2022-12-16T16:41:35.474Z,38.33
2022-12-16T16:44:22.551Z,33.72
2022-12-16T16:47:10.098Z,37.38
2022-12-16T16:50:01.986Z,26.85
2022-12-16T16:52:50.103Z,26.85
2022-12-16T16:55:41.062Z,29.80
2022-12-16T16:58:33.979Z,45.85
